createdAt,value
2023-04-01T00:01:24.880Z,98807.91
2023-04-01T00:03:53.102Z,98799.55
2023-04-01T00:06:21.312Z,98795.98
2023-04-01T00:08:49.216Z,98790.39
2023-04-01T00:11:18.270Z,98787.69
2023-04-01T00:13:48.865Z,98786.11
2023-04-01T00:16:22.291Z,98780.70
2023-04-01T00:18:51.606Z,98786.77
2023-04-01T00:21:21.730Z,98791.25
2023-04-01T00:23:51.745Z,98791.90
2023-04-01T00:26:22.326Z,98786.44
2023-04-01T00:28:50.942Z,98787.16
2023-04-01T00:31:19.312Z,98785.30
2023-04-01T00:33:47.284Z,98779.46
2023-04-01T00:36:18.167Z,98779.49
2023-04-01T00:38:47.809Z,98773.71
2023-04-01T00:41:18.086Z,98767.55
2023-04-01T00:43:48.633Z,98765.76
2023-04-01T00:46:16.938Z,98770.38
2023-04-01T00:49:03.727Z,98768.31
2023-04-01T00:51:31.868Z,98774.05
2023-04-01T00:54:02.841Z,98770.84
2023-04-01T00:56:41.623Z,98768.19
2023-04-01T00:59:15.649Z,98765.15
2023-04-01T01:01:44.184Z,98760.13
2023-04-01T01:04:41.644Z,98756.19
2023-04-01T01:07:29.202Z,98752.88
2023-04-01T01:10:12.844Z,98752.92
2023-04-01T01:12:58.505Z,98752.23
2023-04-01T01:15:38.705Z,98750.74
2023-04-01T01:18:25.430Z,98748.98
2023-04-01T01:21:31.381Z,98752.86
2023-04-01T01:24:30.016Z,98756.34
2023-04-01T01:27:33.418Z,98754.61
2023-04-01T01:30:24.812Z,98754.34
2023-04-01T01:33:14.873Z,98751.22
2023-04-01T01:35:56.075Z,98747.02
2023-04-01T01:38:29.883Z,98743.98
2023-04-01T01:41:04.546Z,98742.55
2023-04-01T01:43:43.185Z,98744.49
2023-04-01T01:46:23.696Z,98745.96
2023-04-01T01:48:53.038Z,98748.39
2023-04-01T01:51:23.047Z,98750.39
2023-04-01T01:53:51.372Z,98754.25
2023-04-01T01:56:24.719Z,98755.84
2023-04-01T01:58:57.622Z,98752.95
2023-04-01T02:01:29.554Z,98754.81
2023-04-01T02:04:00.494Z,98757.80
2023-04-01T02:06:33.571Z,98760.10
2023-04-01T02:09:07.849Z,98759.84
2023-04-01T02:11:42.914Z,98756.39
2023-04-01T02:14:49.214Z,98753.27
2023-04-01T02:17:24.478Z,98744.95
2023-04-01T02:20:08.785Z,98745.66
2023-04-01T02:22:46.333Z,98741.27
2023-04-01T02:25:19.761Z,98744.21
2023-04-01T02:27:48.395Z,98747.02
2023-04-01T02:30:18.438Z,98750.73
2023-04-01T02:32:47.764Z,98750.98
2023-04-01T02:35:17.761Z,98747.38
2023-04-01T02:37:49.714Z,98741.80
2023-04-01T02:40:18.834Z,98742.19
2023-04-01T02:42:47.120Z,98743.36
2023-04-01T02:45:16.181Z,98746.64
2023-04-01T02:47:44.330Z,98746.46
2023-04-01T02:50:13.723Z,98745.55
2023-04-01T02:52:41.720Z,98742.41
2023-04-01T02:55:10.330Z,98745.48
2023-04-01T02:57:38.563Z,98754.31
2023-04-01T03:00:12.081Z,98757.77
2023-04-01T03:02:40.426Z,98756.64
2023-04-01T03:05:08.820Z,98754.02
2023-04-01T03:07:36.875Z,98751.38
2023-04-01T03:10:05.368Z,98755.40
2023-04-01T03:12:33.344Z,98754.55
2023-04-01T03:15:11.024Z,98750.69
2023-04-01T03:17:42.564Z,98750.45
2023-04-01T03:20:12.654Z,98753.60
2023-04-01T03:22:42.880Z,98750.44
2023-04-01T03:25:11.602Z,98753.33
2023-04-01T03:27:39.848Z,98754.11
2023-04-01T03:30:09.230Z,98756.72
2023-04-01T03:32:39.398Z,98752.27
2023-04-01T03:35:07.971Z,98749.55
2023-04-01T03:37:36.049Z,98748.43
2023-04-01T03:40:04.888Z,98750.84
2023-04-01T03:42:34.047Z,98750.37
2023-04-01T03:45:03.436Z,98747.36
2023-04-01T03:47:31.369Z,98743.25
2023-04-01T03:49:59.337Z,98746.14
2023-04-01T03:52:27.614Z,98743.11
2023-04-01T03:54:55.817Z,98744.40
2023-04-01T03:57:24.022Z,98749.63
2023-04-01T03:59:52.697Z,98756.87
2023-04-01T04:02:20.951Z,98758.16
2023-04-01T04:04:49.063Z,98759.48
2023-04-01T04:07:17.255Z,98752.57
2023-04-01T04:10:03.759Z,98753.89
2023-04-01T04:12:31.694Z,98754.57
2023-04-01T04:14:59.656Z,98750.62
2023-04-01T04:17:27.796Z,98752.02
2023-04-01T04:19:55.762Z,98754.13
2023-04-01T04:22:23.882Z,98758.27
2023-04-01T04:24:52.132Z,98759.52
2023-04-01T04:27:20.313Z,98761.02
2023-04-01T04:30:00.888Z,98758.80
2023-04-01T04:32:30.014Z,98756.13
2023-04-01T04:34:58.333Z,98759.17
2023-04-01T04:37:26.946Z,98756.90
2023-04-01T04:39:55.045Z,98752.09
2023-04-01T04:42:23.679Z,98751.58
2023-04-01T04:44:55.057Z,98750.81
2023-04-01T04:47:23.177Z,98748.84
2023-04-01T04:49:51.504Z,98751.65
2023-04-01T04:52:19.627Z,98752.08
2023-04-01T04:54:47.663Z,98753.77
2023-04-01T04:57:16.162Z,98750.91
2023-04-01T04:59:53.130Z,98751.20
2023-04-01T05:02:30.583Z,98746.05
2023-04-01T05:04:58.910Z,98740.64
2023-04-01T05:07:26.898Z,98737.65
2023-04-01T05:09:54.806Z,98738.05
2023-04-01T05:12:22.752Z,98735.70
2023-04-01T05:15:01.738Z,98743.84
2023-04-01T05:17:30.458Z,98744.19
2023-04-01T05:19:59.223Z,98747.47
2023-04-01T05:22:27.345Z,98748.38
2023-04-01T05:24:55.367Z,98750.69
2023-04-01T05:27:24.478Z,98750.17
2023-04-01T05:29:52.730Z,98751.89
2023-04-01T05:32:39.243Z,98758.55
2023-04-01T05:35:07.832Z,98763.23
2023-04-01T05:37:36.385Z,98764.77
2023-04-01T05:40:06.142Z,98762.67
2023-04-01T05:42:36.650Z,98760.35
2023-04-01T05:45:06.389Z,98758.92
2023-04-01T05:48:09.796Z,98756.10
2023-04-01T05:50:42.537Z,98758.77
2023-04-01T05:53:11.721Z,98754.40
2023-04-01T05:55:41.781Z,98750.05
2023-04-01T05:58:09.899Z,98752.20
2023-04-01T06:00:38.426Z,98747.98
2023-04-01T06:03:06.599Z,98744.34
2023-04-01T06:05:43.069Z,98741.14
2023-04-01T06:08:19.859Z,98740.63
2023-04-01T06:11:04.666Z,98741.13
2023-04-01T06:13:47.463Z,98739.63
2023-04-01T06:16:51.074Z,98738.66
2023-04-01T06:19:57.716Z,98736.29
2023-04-01T06:22:48.207Z,98737.89
2023-04-01T06:25:44.758Z,98742.09
2023-04-01T06:28:35.004Z,98742.01
2023-04-01T06:31:06.424Z,98741.41
2023-04-01T06:33:43.728Z,98738.49
2023-04-01T06:36:49.369Z,98735.09
2023-04-01T06:39:37.358Z,98734.55
2023-04-01T06:42:14.002Z,98734.67
2023-04-01T06:45:01.954Z,98731.25
2023-04-01T06:47:59.125Z,98725.03
2023-04-01T06:50:46.597Z,98722.56
2023-04-01T06:53:30.032Z,98725.41
2023-04-01T06:56:20.419Z,98720.39
2023-04-01T06:59:06.512Z,98718.52
2023-04-01T07:01:40.546Z,98723.70
2023-04-01T07:04:27.417Z,98727.58
2023-04-01T07:07:00.549Z,98729.73
2023-04-01T07:09:40.681Z,98729.17
2023-04-01T07:12:47.704Z,98727.91
2023-04-01T07:15:26.050Z,98726.52
2023-04-01T07:18:03.118Z,98729.29
2023-04-01T07:20:39.079Z,98729.32
2023-04-01T07:23:16.829Z,98731.13
2023-04-01T07:26:23.541Z,98734.14
2023-04-01T07:28:55.109Z,98736.45
2023-04-01T07:31:49.683Z,98736.77
2023-04-01T07:34:27.381Z,98733.83
2023-04-01T07:37:28.813Z,98732.95
2023-04-01T07:40:42.979Z,98733.73
2023-04-01T07:43:39.567Z,98727.93
2023-04-01T07:46:48.830Z,98722.80
2023-04-01T07:49:19.958Z,98716.97
2023-04-01T07:52:10.211Z,98713.80
2023-04-01T07:54:50.827Z,98711.54
2023-04-01T07:57:43.227Z,98717.70
2023-04-01T08:00:14.000Z,98715.02
2023-04-01T08:03:34.955Z,98713.10
2023-04-01T08:06:31.475Z,98709.62
2023-04-01T08:09:11.807Z,98709.92
2023-04-01T08:12:39.708Z,98707.08
2023-04-01T08:15:42.653Z,98705.13
2023-04-01T08:18:41.257Z,98703.63
2023-04-01T08:21:17.009Z,98708.50
2023-04-01T08:23:49.543Z,98708.27
2023-04-01T08:26:17.734Z,98710.55
2023-04-01T08:29:05.058Z,98711.80
2023-04-01T08:31:44.593Z,98715.35
2023-04-01T08:34:24.396Z,98712.66
2023-04-01T08:37:05.744Z,98712.19
2023-04-01T08:39:39.878Z,98721.33
2023-04-01T08:42:46.445Z,98729.40
2023-04-01T08:45:45.041Z,98729.25
2023-04-01T08:48:35.131Z,98728.61
2023-04-01T08:51:29.432Z,98732.27
2023-04-01T08:54:10.487Z,98734.11
2023-04-01T08:56:58.115Z,98730.72
2023-04-01T08:59:39.320Z,98723.00
2023-04-01T09:02:18.715Z,98716.18
2023-04-01T09:05:18.553Z,98705.86
2023-04-01T09:08:11.133Z,98703.77
2023-04-01T09:10:51.357Z,98701.90
2023-04-01T09:14:07.256Z,98704.62
2023-04-01T09:16:57.805Z,98709.53
2023-04-01T09:19:35.333Z,98715.29
2023-04-01T09:22:16.607Z,98714.22
2023-04-01T09:25:23.401Z,98712.17
2023-04-01T09:28:18.866Z,98703.33
2023-04-01T09:30:55.938Z,98697.63
2023-04-01T09:33:35.020Z,98697.14
2023-04-01T09:36:21.980Z,98697.98
2023-04-01T09:39:14.894Z,98692.02
2023-04-01T09:41:55.247Z,98691.09
2023-04-01T09:44:38.039Z,98692.25
2023-04-01T09:47:25.594Z,98689.83
2023-04-01T09:50:21.727Z,98688.83
2023-04-01T09:53:19.990Z,98684.02
2023-04-01T09:56:00.307Z,98680.64
2023-04-01T09:58:56.037Z,98678.45
2023-04-01T10:02:09.759Z,98679.80
2023-04-01T10:05:21.065Z,98679.30
2023-04-01T10:07:51.960Z,98681.59
2023-04-01T10:10:57.068Z,98680.05
2023-04-01T10:13:53.321Z,98676.90
2023-04-01T10:16:54.280Z,98675.48
2023-04-01T10:19:40.511Z,98674.85
2023-04-01T10:22:33.503Z,98677.92
2023-04-01T10:25:30.022Z,98678.80
2023-04-01T10:28:23.799Z,98676.17
2023-04-01T10:31:46.511Z,98675.91
2023-04-01T10:35:04.981Z,98673.30
2023-04-01T10:37:51.912Z,98674.67
2023-04-01T10:40:38.726Z,98679.66
2023-04-01T10:43:54.237Z,98682.65
2023-04-01T10:46:41.460Z,98682.17
2023-04-01T10:49:29.301Z,98680.59
2023-04-01T10:52:25.051Z,98685.21
2023-04-01T10:55:49.494Z,98681.06
2023-04-01T10:59:11.836Z,98674.05
2023-04-01T11:02:40.705Z,98674.02
2023-04-01T11:05:41.673Z,98673.65
2023-04-01T11:08:38.037Z,98670.66
2023-04-01T11:11:14.607Z,98665.27
2023-04-01T11:14:01.331Z,98664.48
2023-04-01T11:17:08.765Z,98662.54
2023-04-01T11:19:39.754Z,98658.05
2023-04-01T11:22:43.564Z,98658.48
2023-04-01T11:25:26.940Z,98656.45
2023-04-01T11:28:36.446Z,98660.73
2023-04-01T11:31:18.961Z,98652.11
2023-04-01T11:34:08.811Z,98652.56
2023-04-01T11:36:50.074Z,98651.91
2023-04-01T11:40:00.917Z,98652.66
2023-04-01T11:43:32.508Z,98649.94
2023-04-01T11:46:47.433Z,98654.37
2023-04-01T11:49:41.835Z,98647.09
2023-04-01T11:52:55.932Z,98648.10
2023-04-01T11:55:41.949Z,98647.25
2023-04-01T11:58:43.951Z,98649.13
2023-04-01T12:01:17.799Z,98648.95
2023-04-01T12:04:01.186Z,98648.07
2023-04-01T12:06:45.044Z,98648.92
2023-04-01T12:09:32.427Z,98650.71
2023-04-01T12:12:13.499Z,98652.94
2023-04-01T12:15:26.197Z,98651.23
2023-04-01T12:18:11.267Z,98648.89
2023-04-01T12:21:17.048Z,98652.55
2023-04-01T12:24:16.227Z,98649.16
2023-04-01T12:26:44.314Z,98649.14
2023-04-01T12:29:58.991Z,98648.50
2023-04-01T12:32:34.298Z,98649.17
2023-04-01T12:35:14.977Z,98645.36
2023-04-01T12:38:04.731Z,98650.41
2023-04-01T12:40:32.886Z,98654.39
2023-04-01T12:43:16.411Z,98659.65
2023-04-01T12:46:09.562Z,98656.00
2023-04-01T12:49:02.734Z,98653.08
2023-04-01T12:51:37.658Z,98652.50
2023-04-01T12:54:53.320Z,98651.59
2023-04-01T12:57:42.595Z,98652.73
2023-04-01T13:00:52.104Z,98652.70
2023-04-01T13:03:47.627Z,98653.61
2023-04-01T13:06:28.361Z,98650.47
2023-04-01T13:09:17.962Z,98651.02
2023-04-01T13:12:08.293Z,98653.68
2023-04-01T13:15:14.556Z,98654.73
2023-04-01T13:17:42.414Z,98655.05
2023-04-01T13:20:10.771Z,98656.55
2023-04-01T13:23:00.004Z,98659.41
2023-04-01T13:26:02.244Z,98659.93
2023-04-01T13:28:41.143Z,98659.77
2023-04-01T13:31:17.295Z,98664.34
2023-04-01T13:34:00.307Z,98664.58
2023-04-01T13:36:34.456Z,98662.50
2023-04-01T13:39:37.618Z,98661.39
2023-04-01T13:42:31.530Z,98658.26
2023-04-01T13:45:19.386Z,98658.45
2023-04-01T13:48:08.641Z,98661.75
2023-04-01T13:50:55.411Z,98663.21
2023-04-01T13:53:49.852Z,98664.08
2023-04-01T13:56:35.723Z,98662.25
2023-04-01T13:59:09.708Z,98663.09
2023-04-01T14:01:51.153Z,98662.13
2023-04-01T14:04:56.936Z,98660.29
2023-04-01T14:08:15.446Z,98656.80
2023-04-01T14:11:25.921Z,98657.20
2023-04-01T14:14:25.018Z,98660.65
2023-04-01T14:17:24.079Z,98663.77
2023-04-01T14:20:11.224Z,98660.40
2023-04-01T14:22:51.785Z,98662.76
2023-04-01T14:25:40.246Z,98658.38
2023-04-01T14:29:10.629Z,98654.58
2023-04-01T14:31:50.657Z,98654.25
2023-04-01T14:34:46.355Z,98654.23
2023-04-01T14:37:32.527Z,98649.98
2023-04-01T14:40:00.719Z,98648.80
2023-04-01T14:42:29.133Z,98650.45
2023-04-01T14:45:03.829Z,98646.55
2023-04-01T14:47:31.721Z,98645.83
2023-04-01T14:50:08.869Z,98644.71
2023-04-01T14:52:40.976Z,98648.74
2023-04-01T14:55:20.448Z,98646.70
2023-04-01T14:58:28.284Z,98647.19
2023-04-01T15:01:20.570Z,98649.84
2023-04-01T15:03:57.764Z,98653.15
2023-04-01T15:06:39.001Z,98652.57
2023-04-01T15:09:25.412Z,98651.89
2023-04-01T15:12:22.924Z,98650.89
2023-04-01T15:14:56.956Z,98646.92
2023-04-01T15:17:39.993Z,98648.31
2023-04-01T15:20:44.076Z,98649.75
2023-04-01T15:23:33.787Z,98648.94
2023-04-01T15:26:18.043Z,98650.67
2023-04-01T15:29:12.227Z,98651.32
2023-04-01T15:31:46.679Z,98649.24
2023-04-01T15:34:46.863Z,98645.59
2023-04-01T15:37:48.898Z,98645.20
2023-04-01T15:40:45.693Z,98647.28
2023-04-01T15:43:25.994Z,98653.59
2023-04-01T15:46:00.620Z,98656.30
2023-04-01T15:48:53.510Z,98656.57
2023-04-01T15:52:03.692Z,98660.02
2023-04-01T15:54:51.940Z,98660.64
2023-04-01T15:57:43.555Z,98659.00
2023-04-01T16:00:28.692Z,98659.70
2023-04-01T16:03:14.746Z,98661.90
2023-04-01T16:06:08.024Z,98662.70
2023-04-01T16:09:18.947Z,98664.83
2023-04-01T16:12:05.670Z,98670.73
2023-04-01T16:14:42.709Z,98673.45
2023-04-01T16:17:28.529Z,98672.55
2023-04-01T16:20:04.044Z,98673.46
2023-04-01T16:23:03.044Z,98670.13
2023-04-01T16:25:37.573Z,98674.02
2023-04-01T16:28:36.370Z,98677.80
2023-04-01T16:31:14.751Z,98678.15
2023-04-01T16:34:23.457Z,98679.34
2023-04-01T16:36:56.894Z,98685.14
2023-04-01T16:39:47.572Z,98687.17
2023-04-01T16:42:26.697Z,98688.07
2023-04-01T16:45:20.897Z,98692.59
2023-04-01T16:47:57.673Z,98698.46
2023-04-01T16:50:32.797Z,98698.54
2023-04-01T16:53:22.794Z,98705.77
2023-04-01T16:56:01.855Z,98705.08
2023-04-01T16:58:41.056Z,98709.63
2023-04-01T17:01:25.763Z,98711.12
2023-04-01T17:04:01.681Z,98715.50
2023-04-01T17:07:20.062Z,98716.25
2023-04-01T17:10:13.086Z,98720.21
2023-04-01T17:13:18.120Z,98725.27
2023-04-01T17:16:40.065Z,98728.55
2023-04-01T17:19:49.539Z,98727.27
2023-04-01T17:22:23.356Z,98729.31
2023-04-01T17:25:00.368Z,98732.09
2023-04-01T17:28:05.816Z,98736.49
2023-04-01T17:30:47.094Z,98741.55
2023-04-01T17:33:29.671Z,98743.56
2023-04-01T17:35:57.707Z,98747.09
2023-04-01T17:39:09.694Z,98751.46
2023-04-01T17:41:54.758Z,98754.11
2023-04-01T17:44:33.138Z,98757.44
2023-04-01T17:47:24.169Z,98759.32
2023-04-01T17:50:01.407Z,98762.42
2023-04-01T17:52:29.638Z,98766.27
2023-04-01T17:55:32.599Z,98772.64
2023-04-01T17:58:35.046Z,98776.69
2023-04-01T18:01:09.911Z,98781.35
2023-04-01T18:04:01.495Z,98782.88
2023-04-01T18:06:45.318Z,98781.91
2023-04-01T18:09:39.404Z,98784.66
2023-04-01T18:12:17.512Z,98787.68
2023-04-01T18:15:01.052Z,98791.19
2023-04-01T18:17:29.548Z,98794.12
2023-04-01T18:20:00.615Z,98796.45
2023-04-01T18:22:42.303Z,98794.62
2023-04-01T18:25:26.200Z,98795.92
2023-04-01T18:28:00.142Z,98797.25
2023-04-01T18:30:34.771Z,98802.09
2023-04-01T18:33:18.033Z,98803.81
2023-04-01T18:36:12.316Z,98808.36
2023-04-01T18:38:49.922Z,98809.23
2023-04-01T18:41:17.983Z,98810.75
2023-04-01T18:44:16.403Z,98808.71
2023-04-01T18:46:53.139Z,98810.80
2023-04-01T18:49:34.889Z,98812.88
2023-04-01T18:52:21.212Z,98812.19
2023-04-01T18:54:54.000Z,98813.09
2023-04-01T18:57:22.366Z,98811.17
2023-04-01T19:00:05.572Z,98814.08
2023-04-01T19:02:48.096Z,98814.38
2023-04-01T19:05:34.069Z,98817.27
2023-04-01T19:08:29.485Z,98820.66
2023-04-01T19:11:15.961Z,98819.05
2023-04-01T19:14:02.421Z,98821.92
2023-04-01T19:16:48.993Z,98827.61
2023-04-01T19:19:31.551Z,98827.58
2023-04-01T19:22:34.586Z,98827.28
2023-04-01T19:25:20.491Z,98829.13
2023-04-01T19:27:54.427Z,98833.73
2023-04-01T19:30:41.146Z,98836.98
2023-04-01T19:33:29.377Z,98839.54
2023-04-01T19:36:00.689Z,98841.02
2023-04-01T19:38:36.717Z,98843.70
2023-04-01T19:41:14.172Z,98849.69
2023-04-01T19:43:42.042Z,98848.20
2023-04-01T19:46:33.012Z,98853.06
2023-04-01T19:49:07.009Z,98852.85
2023-04-01T19:51:51.251Z,98858.30
2023-04-01T19:54:36.074Z,98861.83
2023-04-01T19:57:11.541Z,98862.98
2023-04-01T19:59:54.389Z,98862.88
2023-04-01T20:02:57.750Z,98863.71
2023-04-01T20:05:54.699Z,98866.20
2023-04-01T20:08:30.307Z,98868.30
2023-04-01T20:11:25.636Z,98867.47
2023-04-01T20:13:53.484Z,98863.88
2023-04-01T20:16:23.606Z,98862.73
2023-04-01T20:19:03.390Z,98862.13
2023-04-01T20:21:35.161Z,98860.41
2023-04-01T20:24:18.069Z,98859.73
2023-04-01T20:26:52.078Z,98863.98
2023-04-01T20:29:23.015Z,98863.08
2023-04-01T20:32:23.655Z,98863.65
2023-04-01T20:35:14.990Z,98867.38
2023-04-01T20:37:59.054Z,98864.67
2023-04-01T20:40:34.454Z,98866.63
2023-04-01T20:43:21.524Z,98864.63
2023-04-01T20:46:17.534Z,98866.27
2023-04-01T20:49:00.741Z,98867.96
2023-04-01T20:51:39.990Z,98867.36
2023-04-01T20:54:19.628Z,98869.65
2023-04-01T20:56:47.488Z,98873.02
2023-04-01T20:59:30.992Z,98873.02
2023-04-01T21:02:05.084Z,98878.80
2023-04-01T21:04:56.630Z,98880.42
2023-04-01T21:07:33.573Z,98881.38
2023-04-01T21:10:46.394Z,98885.30
2023-04-01T21:13:20.250Z,98890.64
2023-04-01T21:16:09.779Z,98892.11
2023-04-01T21:19:06.345Z,98893.65
2023-04-01T21:21:49.390Z,98898.10
2023-04-01T21:24:46.471Z,98901.02
2023-04-01T21:27:39.055Z,98899.54
2023-04-01T21:30:32.017Z,98905.16
2023-04-01T21:33:24.574Z,98907.98
2023-04-01T21:36:04.715Z,98911.27
2023-04-01T21:38:41.609Z,98910.95
2023-04-01T21:41:18.693Z,98913.65
2023-04-01T21:44:09.462Z,98916.23
2023-04-01T21:46:56.300Z,98920.29
2023-04-01T21:49:27.087Z,98917.60
2023-04-01T21:52:17.532Z,98916.59
2023-04-01T21:55:27.136Z,98919.45
2023-04-01T21:58:09.925Z,98917.36
2023-04-01T22:00:56.108Z,98920.35
2023-04-01T22:03:49.851Z,98919.84
2023-04-01T22:06:42.250Z,98920.04
2023-04-01T22:09:26.640Z,98922.25
2023-04-01T22:12:09.216Z,98922.26
2023-04-01T22:14:47.225Z,98916.79
2023-04-01T22:17:26.498Z,98921.00
2023-04-01T22:20:06.522Z,98922.13
2023-04-01T22:22:53.894Z,98922.11
2023-04-01T22:25:32.179Z,98923.59
2023-04-01T22:28:13.557Z,98924.71
2023-04-01T22:30:53.691Z,98928.54
2023-04-01T22:33:50.350Z,98927.32
2023-04-01T22:36:36.866Z,98929.25
2023-04-01T22:39:48.300Z,98933.75
2023-04-01T22:42:28.763Z,98936.33
2023-04-01T22:45:08.960Z,98938.58
2023-04-01T22:47:52.525Z,98937.85
2023-04-01T22:50:45.649Z,98941.33
2023-04-01T22:53:46.708Z,98944.43
2023-04-01T22:56:18.071Z,98945.05
2023-04-01T22:59:01.608Z,98948.42
2023-04-01T23:01:40.885Z,98951.27
2023-04-01T23:04:13.598Z,98953.25
2023-04-01T23:06:47.849Z,98955.23
2023-04-01T23:09:23.434Z,98959.17
2023-04-01T23:12:06.382Z,98962.48
2023-04-01T23:14:57.314Z,98964.27
2023-04-01T23:17:47.219Z,98966.25
2023-04-01T23:20:44.802Z,98969.35
2023-04-01T23:23:19.077Z,98965.73
2023-04-01T23:26:22.696Z,98964.09
2023-04-01T23:29:00.564Z,98966.70
2023-04-01T23:31:40.900Z,98965.88
2023-04-01T23:34:14.911Z,98968.45
2023-04-01T23:36:47.300Z,98966.84
2023-04-01T23:39:38.128Z,98967.64
2023-04-01T23:42:13.786Z,98967.98
2023-04-01T23:44:42.844Z,98968.61
2023-04-01T23:47:36.064Z,98971.63
2023-04-01T23:50:24.320Z,98973.16
2023-04-01T23:53:19.008Z,98977.31
2023-04-01T23:55:47.891Z,98983.10
2023-04-01T23:58:29.542Z,98986.85
